createdAt,value
2017-10-07T00:00:27.494Z,97783.89
2017-10-07T00:00:59.330Z,97780.09
2017-10-07T00:01:32.126Z,97781.33
2017-10-07T00:02:03.786Z,97774.98
2017-10-07T00:02:35.518Z,97772.87
2017-10-07T00:03:07.399Z,97782.23
2017-10-07T00:03:39.049Z,97775.91
2017-10-07T00:04:10.696Z,97781.40
2017-10-07T00:04:42.350Z,97783.11
2017-10-07T00:05:14.213Z,97786.16
2017-10-07T00:05:45.861Z,97775.48
2017-10-07T00:06:17.509Z,97786.56
2017-10-07T00:06:49.161Z,97782.73
2017-10-07T00:07:20.861Z,97782.73
2017-10-07T00:07:52.509Z,97782.74
2017-10-07T00:08:24.798Z,97781.90
2017-10-07T00:08:56.449Z,97787.91
2017-10-07T00:09:28.134Z,97791.27
2017-10-07T00:09:59.825Z,97784.08
2017-10-07T00:10:31.654Z,97786.16
2017-10-07T00:11:03.304Z,97783.66
2017-10-07T00:11:34.953Z,97784.94
2017-10-07T00:12:06.605Z,97782.81
2017-10-07T00:12:38.250Z,97781.13
2017-10-07T00:13:10.745Z,97788.83
2017-10-07T00:13:42.496Z,97789.68
2017-10-07T00:14:14.146Z,97783.30
2017-10-07T00:14:46.345Z,97783.30
2017-10-07T00:15:17.997Z,97778.62
2017-10-07T00:15:49.677Z,97789.27
2017-10-07T00:16:21.560Z,97790.98
2017-10-07T00:16:53.209Z,97788.84
2017-10-07T00:17:24.911Z,97790.13
2017-10-07T00:17:56.855Z,97791.02
2017-10-07T00:18:28.552Z,97788.48
2017-10-07T00:19:00.330Z,97787.63
2017-10-07T00:19:32.093Z,97786.78
2017-10-07T00:20:03.746Z,97789.77
2017-10-07T00:20:35.401Z,97788.92
2017-10-07T00:21:07.053Z,97787.27
2017-10-07T00:21:38.702Z,97785.52
2017-10-07T00:22:10.349Z,97793.18
2017-10-07T00:22:42.241Z,97796.16
2017-10-07T00:23:13.893Z,97786.36
2017-10-07T00:23:45.585Z,97789.33
2017-10-07T00:24:17.517Z,97785.45
2017-10-07T00:24:49.162Z,97789.68
2017-10-07T00:25:20.817Z,97784.99
2017-10-07T00:25:52.718Z,97787.92
2017-10-07T00:26:24.409Z,97784.99
2017-10-07T00:26:56.057Z,97784.95
2017-10-07T00:27:27.701Z,97778.13
2017-10-07T00:27:59.619Z,97785.38
2017-10-07T00:28:31.277Z,97778.98
2017-10-07T00:29:02.921Z,97787.12
2017-10-07T00:29:34.574Z,97787.92
2017-10-07T00:30:06.217Z,97788.77
2017-10-07T00:30:37.866Z,97790.91
2017-10-07T00:31:09.539Z,97788.36
2017-10-07T00:31:41.393Z,97788.78
2017-10-07T00:32:13.042Z,97790.10
2017-10-07T00:32:44.736Z,97786.28
2017-10-07T00:33:16.625Z,97787.56
2017-10-07T00:33:48.277Z,97788.42
2017-10-07T00:34:19.928Z,97790.13
2017-10-07T00:34:51.575Z,97791.88
2017-10-07T00:35:23.225Z,97790.18
2017-10-07T00:35:55.142Z,97789.75
2017-10-07T00:36:26.805Z,97788.48
2017-10-07T00:36:58.453Z,97790.18
2017-10-07T00:37:30.101Z,97792.31
2017-10-07T00:38:01.777Z,97785.08
2017-10-07T00:38:33.428Z,97793.18
2017-10-07T00:39:05.301Z,97792.33
2017-10-07T00:39:36.963Z,97796.14
2017-10-07T00:40:08.892Z,97784.25
2017-10-07T00:40:40.542Z,97790.24
2017-10-07T00:41:12.230Z,97793.19
2017-10-07T00:41:44.125Z,97794.09
2017-10-07T00:42:15.777Z,97791.95
2017-10-07T00:42:47.425Z,97791.95
2017-10-07T00:43:19.073Z,97788.98
2017-10-07T00:43:50.725Z,97792.82
2017-10-07T00:44:22.365Z,97791.95
2017-10-07T00:44:54.013Z,97790.27
2017-10-07T00:45:25.660Z,97788.97
2017-10-07T00:45:57.304Z,97790.68
2017-10-07T00:46:28.949Z,97792.39
2017-10-07T00:47:00.847Z,97788.53
2017-10-07T00:47:32.545Z,97792.80
2017-10-07T00:48:04.441Z,97784.72
2017-10-07T00:48:36.893Z,97788.53
2017-10-07T00:49:08.642Z,97789.39
2017-10-07T00:49:40.303Z,97781.73
2017-10-07T00:50:11.954Z,97785.16
2017-10-07T00:50:43.605Z,97786.02
2017-10-07T00:51:15.518Z,97783.07
2017-10-07T00:51:47.356Z,97790.27
2017-10-07T00:52:19.113Z,97783.86
2017-10-07T00:52:50.794Z,97791.52
2017-10-07T00:53:22.437Z,97783.00
2017-10-07T00:53:54.084Z,97783.00
2017-10-07T00:54:25.733Z,97786.41
2017-10-07T00:54:57.623Z,97786.41
2017-10-07T00:55:29.395Z,97790.24
2017-10-07T00:56:01.040Z,97783.03
2017-10-07T00:56:32.689Z,97776.20
2017-10-07T00:57:04.340Z,97782.60
2017-10-07T00:57:35.985Z,97785.58
2017-10-07T00:58:07.633Z,97785.57
2017-10-07T00:58:39.305Z,97784.72
2017-10-07T00:59:11.072Z,97782.17
2017-10-07T00:59:42.722Z,97785.53
2017-10-07T01:00:14.409Z,97791.91
2017-10-07T01:00:46.056Z,97788.50
2017-10-07T01:01:17.947Z,97784.66
2017-10-07T01:01:49.605Z,97785.52
2017-10-07T01:02:21.245Z,97787.22
2017-10-07T01:02:52.885Z,97784.67
2017-10-07T01:03:24.533Z,97786.37
2017-10-07T01:03:56.173Z,97784.23
2017-10-07T01:04:27.821Z,97784.72
2017-10-07T01:04:59.695Z,97780.84
2017-10-07T01:05:31.397Z,97789.36
2017-10-07T01:06:03.057Z,97780.84
2017-10-07T01:06:34.705Z,97788.50
2017-10-07T01:07:06.353Z,97785.95
2017-10-07T01:07:37.997Z,97782.16
2017-10-07T01:08:09.905Z,97783.44
2017-10-07T01:08:41.561Z,97781.30
2017-10-07T01:09:13.206Z,97788.13
2017-10-07T01:09:44.853Z,97783.87
2017-10-07T01:10:16.781Z,97787.27
2017-10-07T01:10:48.470Z,97784.30
2017-10-07T01:11:21.293Z,97778.77
2017-10-07T01:11:53.122Z,97782.17
2017-10-07T01:12:24.884Z,97780.91
2017-10-07T01:12:56.537Z,97786.84
2017-10-07T01:13:28.181Z,97783.06
2017-10-07T01:13:59.825Z,97788.59
2017-10-07T01:14:31.521Z,97782.63
2017-10-07T01:15:03.401Z,97783.45
2017-10-07T01:15:35.053Z,97784.30
2017-10-07T01:16:06.991Z,97786.86
2017-10-07T01:16:38.641Z,97781.30
2017-10-07T01:17:10.296Z,97787.70
2017-10-07T01:17:41.969Z,97793.23
2017-10-07T01:18:13.868Z,97786.84
2017-10-07T01:18:45.520Z,97792.75
2017-10-07T01:19:17.169Z,97791.37
2017-10-07T01:19:49.177Z,97786.16
2017-10-07T01:20:21.659Z,97781.89
2017-10-07T01:20:53.546Z,97789.99
2017-10-07T01:21:25.189Z,97786.69
2017-10-07T01:21:56.896Z,97785.49
2017-10-07T01:22:29.147Z,97790.63
2017-10-07T01:23:00.802Z,97776.24
2017-10-07T01:23:32.445Z,97780.50
2017-10-07T01:24:04.090Z,97780.15
2017-10-07T01:24:35.737Z,97785.68
2017-10-07T01:25:07.430Z,97786.97
2017-10-07T01:25:39.497Z,97788.24
2017-10-07T01:26:11.260Z,97781.49
2017-10-07T01:26:42.909Z,97781.91
2017-10-07T01:27:14.553Z,97780.59
2017-10-07T01:27:46.205Z,97777.66
2017-10-07T01:28:17.845Z,97780.17
2017-10-07T01:28:49.505Z,97778.52
2017-10-07T01:29:21.149Z,97783.63
2017-10-07T01:29:52.797Z,97782.35
2017-10-07T01:30:24.445Z,97770.02
2017-10-07T01:30:56.344Z,97778.58
2017-10-07T01:31:27.993Z,97780.67
2017-10-07T01:31:59.637Z,97776.45
2017-10-07T01:32:31.333Z,97773.89
2017-10-07T01:33:03.219Z,97779.87
2017-10-07T01:33:34.869Z,97774.77
2017-10-07T01:34:06.513Z,97782.85
2017-10-07T01:34:38.165Z,97779.02
2017-10-07T01:35:09.813Z,97776.05
2017-10-07T01:35:41.461Z,97776.48
2017-10-07T01:36:13.105Z,97776.47
2017-10-07T01:36:44.787Z,97775.20
2017-10-07T01:37:16.624Z,97778.66
2017-10-07T01:37:48.319Z,97781.63
2017-10-07T01:38:19.965Z,97778.23
2017-10-07T01:38:51.622Z,97782.06
2017-10-07T01:39:23.270Z,97781.63
2017-10-07T01:39:54.917Z,97775.25
2017-10-07T01:40:26.577Z,97780.36
2017-10-07T01:40:58.462Z,97780.36
2017-10-07T01:41:30.121Z,97784.19
2017-10-07T01:42:01.769Z,97783.33
2017-10-07T01:42:33.409Z,97778.24
2017-10-07T01:43:05.053Z,97785.47
2017-10-07T01:43:36.701Z,97784.63
2017-10-07T01:44:08.617Z,97781.22
2017-10-07T01:44:40.569Z,97783.34
2017-10-07T01:45:12.450Z,97784.19
2017-10-07T01:45:44.101Z,97788.44
2017-10-07T01:46:15.753Z,97783.33
2017-10-07T01:46:47.401Z,97790.98
2017-10-07T01:47:19.087Z,97789.71
2017-10-07T01:47:50.737Z,97790.98
2017-10-07T01:48:22.429Z,97792.27
2017-10-07T01:48:54.315Z,97788.02
2017-10-07T01:49:25.969Z,97785.91
2017-10-07T01:49:57.613Z,97797.38
2017-10-07T01:50:29.257Z,97787.60
2017-10-07T01:51:00.906Z,97790.16
2017-10-07T01:51:32.549Z,97789.73
2017-10-07T01:52:04.238Z,97785.48
2017-10-07T01:52:35.892Z,97791.86
2017-10-07T01:53:07.764Z,97786.81
2017-10-07T01:53:39.413Z,97792.78
2017-10-07T01:54:11.071Z,97786.83
2017-10-07T01:54:42.717Z,97792.78
2017-10-07T01:55:14.361Z,97782.14
2017-10-07T01:55:46.006Z,97782.56
2017-10-07T01:56:17.648Z,97787.25
2017-10-07T01:56:49.293Z,97783.86
2017-10-07T01:57:20.941Z,97791.52
2017-10-07T01:57:52.593Z,97789.84
2017-10-07T01:58:24.238Z,97791.13
2017-10-07T01:58:55.881Z,97792.41
2017-10-07T01:59:27.541Z,97791.14
2017-10-07T01:59:59.415Z,97791.16
2017-10-07T02:00:31.114Z,97794.55
2017-10-07T02:01:02.765Z,97790.34
2017-10-07T02:01:34.602Z,97795.41
2017-10-07T02:02:06.245Z,97794.55
2017-10-07T02:02:37.906Z,97790.30
2017-10-07T02:03:09.598Z,97789.94
2017-10-07T02:03:41.244Z,97794.62
2017-10-07T02:04:13.897Z,97795.46
2017-10-07T02:04:45.546Z,97789.03
2017-10-07T02:05:17.210Z,97788.96
2017-10-07T02:05:49.013Z,97795.70
2017-10-07T02:06:20.960Z,97792.27
2017-10-07T02:06:52.613Z,97794.83
2017-10-07T02:07:24.261Z,97789.67
2017-10-07T02:07:56.683Z,97790.10
2017-10-07T02:08:28.449Z,97790.94
2017-10-07T02:09:00.097Z,97790.50
2017-10-07T02:09:31.740Z,97789.64
2017-10-07T02:10:03.389Z,97796.41
2017-10-07T02:10:35.633Z,97796.89
2017-10-07T02:11:07.281Z,97794.33
2017-10-07T02:11:38.973Z,97797.30
2017-10-07T02:12:10.821Z,97799.44
2017-10-07T02:12:42.505Z,97796.89
2017-10-07T02:13:14.161Z,97795.63
2017-10-07T02:13:45.809Z,97800.73
2017-10-07T02:14:17.452Z,97800.73
2017-10-07T02:14:49.102Z,97800.30
2017-10-07T02:15:20.751Z,97804.55
2017-10-07T02:15:52.924Z,97803.70
2017-10-07T02:16:24.884Z,97802.88
2017-10-07T02:16:56.559Z,97801.64
2017-10-07T02:17:28.213Z,97798.61
2017-10-07T02:17:59.861Z,97804.56
2017-10-07T02:18:31.509Z,97803.71
2017-10-07T02:19:03.157Z,97807.97
2017-10-07T02:19:34.802Z,97804.14
2017-10-07T02:20:06.445Z,97799.94
2017-10-07T02:20:38.529Z,97804.14
2017-10-07T02:21:10.234Z,97809.30
2017-10-07T02:21:41.882Z,97799.53
2017-10-07T02:22:13.529Z,97804.20
2017-10-07T02:22:45.546Z,97799.95
2017-10-07T02:23:17.585Z,97807.20
2017-10-07T02:23:49.443Z,97804.27
2017-10-07T02:24:21.288Z,97802.13
2017-10-07T02:24:53.034Z,97805.54
2017-10-07T02:25:24.991Z,97805.53
2017-10-07T02:25:57.961Z,97804.69
2017-10-07T02:26:29.649Z,97805.96
2017-10-07T02:27:01.445Z,97812.30
2017-10-07T02:27:33.137Z,97802.08
2017-10-07T02:28:05.036Z,97807.19
2017-10-07T02:28:36.686Z,97809.36
2017-10-07T02:29:08.329Z,97805.48
2017-10-07T02:29:39.980Z,97811.03
2017-10-07T02:30:11.628Z,97811.87
2017-10-07T02:30:43.446Z,97815.70
2017-10-07T02:31:15.195Z,97813.56
2017-10-07T02:31:47.145Z,97816.13
2017-10-07T02:32:18.793Z,97811.02
2017-10-07T02:32:50.441Z,97807.17
2017-10-07T02:33:22.419Z,97814.41
2017-10-07T02:33:54.074Z,97817.38
2017-10-07T02:34:25.721Z,97817.80
2017-10-07T02:34:57.365Z,97815.20
2017-10-07T02:35:29.143Z,97818.60
2017-10-07T02:36:00.895Z,97813.05
2017-10-07T02:36:32.546Z,97817.30
2017-10-07T02:37:04.197Z,97814.34
2017-10-07T02:37:36.024Z,97812.64
2017-10-07T02:38:07.769Z,97817.31
2017-10-07T02:38:39.720Z,97816.05
2017-10-07T02:39:11.370Z,97820.30
2017-10-07T02:39:43.021Z,97817.30
2017-10-07T02:40:14.669Z,97822.36
2017-10-07T02:40:47.203Z,97824.48
2017-10-07T02:41:18.856Z,97821.92
2017-10-07T02:41:50.501Z,97819.75
2017-10-07T02:42:22.149Z,97820.65
2017-10-07T02:42:53.793Z,97817.24
2017-10-07T02:43:25.451Z,97820.65
2017-10-07T02:43:57.094Z,97820.17
2017-10-07T02:44:28.741Z,97821.50
2017-10-07T02:45:00.650Z,97821.03
2017-10-07T02:45:32.902Z,97822.30
2017-10-07T02:46:04.602Z,97815.91
2017-10-07T02:46:36.629Z,97814.63
2017-10-07T02:47:08.282Z,97817.60
2017-10-07T02:47:40.586Z,97817.56
2017-10-07T02:48:12.344Z,97812.00
2017-10-07T02:48:43.998Z,97811.16
2017-10-07T02:49:15.649Z,97819.23
2017-10-07T02:49:47.297Z,97809.02
2017-10-07T02:50:18.949Z,97817.50
2017-10-07T02:50:50.596Z,97814.93
2017-10-07T02:51:22.291Z,97816.23
2017-10-07T02:51:54.131Z,97813.67
2017-10-07T02:52:25.788Z,97815.36
2017-10-07T02:52:57.433Z,97813.24
2017-10-07T02:53:29.077Z,97808.56
2017-10-07T02:54:00.724Z,97816.20
2017-10-07T02:54:32.673Z,97805.99
2017-10-07T02:55:04.322Z,97817.08
2017-10-07T02:55:35.966Z,97808.97
2017-10-07T02:56:07.613Z,97814.98
2017-10-07T02:56:40.149Z,97820.52
2017-10-07T02:57:12.914Z,97809.45
2017-10-07T02:57:44.662Z,97815.41
2017-10-07T02:58:16.353Z,97811.59
2017-10-07T02:58:48.006Z,97818.41
2017-10-07T02:59:19.896Z,97813.30
2017-10-07T02:59:51.862Z,97817.17
2017-10-07T03:00:23.509Z,97818.03
2017-10-07T03:00:55.157Z,97823.14
2017-10-07T03:01:26.803Z,97823.14
2017-10-07T03:01:58.449Z,97821.02
2017-10-07T03:02:30.361Z,97815.48
2017-10-07T03:03:02.056Z,97825.28
2017-10-07T03:03:33.899Z,97823.16
2017-10-07T03:04:05.549Z,97824.44
2017-10-07T03:04:37.197Z,97824.05
2017-10-07T03:05:08.875Z,97827.41
2017-10-07T03:05:40.827Z,97824.06
2017-10-07T03:06:12.925Z,97824.91
2017-10-07T03:06:44.722Z,97824.06
2017-10-07T03:07:16.414Z,97821.99
2017-10-07T03:07:48.066Z,97829.66
2017-10-07T03:08:19.720Z,97824.08
2017-10-07T03:08:51.374Z,97828.75
2017-10-07T03:09:23.242Z,97826.63
2017-10-07T03:09:55.497Z,97827.12
2017-10-07T03:10:27.448Z,97824.98
2017-10-07T03:10:59.105Z,97824.98
2017-10-07T03:11:31.041Z,97827.12
2017-10-07T03:12:02.689Z,97825.46
2017-10-07T03:12:34.340Z,97825.00
2017-10-07T03:13:05.981Z,97824.19
2017-10-07T03:13:37.641Z,97824.13
2017-10-07T03:14:09.298Z,97825.46
2017-10-07T03:14:40.949Z,97824.62
2017-10-07T03:15:12.835Z,97824.62
2017-10-07T03:15:44.659Z,97831.00
2017-10-07T03:16:16.942Z,97825.47
2017-10-07T03:16:48.593Z,97826.77
2017-10-07T03:17:20.237Z,97834.00
2017-10-07T03:17:51.897Z,97833.20
2017-10-07T03:18:23.542Z,97830.22
2017-10-07T03:18:55.189Z,97838.32
2017-10-07T03:19:26.896Z,97835.82
2017-10-07T03:19:58.545Z,97833.70
2017-10-07T03:20:30.197Z,97836.26
2017-10-07T03:21:01.844Z,97840.56
2017-10-07T03:21:33.488Z,97832.97
2017-10-07T03:22:05.137Z,97837.23
2017-10-07T03:22:36.793Z,97830.85
2017-10-07T03:23:08.441Z,97833.88
2017-10-07T03:23:40.093Z,97839.00
2017-10-07T03:24:11.935Z,97833.95
2017-10-07T03:24:43.929Z,97833.11
2017-10-07T03:25:15.878Z,97839.97
2017-10-07T03:25:47.705Z,97835.66
2017-10-07T03:26:19.469Z,97836.94
2017-10-07T03:26:51.418Z,97837.36
2017-10-07T03:27:23.117Z,97838.59
2017-10-07T03:27:54.761Z,97832.21
2017-10-07T03:28:26.410Z,97833.91
2017-10-07T03:28:58.061Z,97834.38
2017-10-07T03:29:29.895Z,97833.48
2017-10-07T03:30:01.553Z,97832.21
2017-10-07T03:30:33.201Z,97835.65
2017-10-07T03:31:05.164Z,97831.84
2017-10-07T03:31:37.116Z,97836.95
2017-10-07T03:32:08.768Z,97831.42
2017-10-07T03:32:40.466Z,97833.98
2017-10-07T03:33:12.151Z,97838.66
2017-10-07T03:33:43.798Z,97834.02
2017-10-07T03:34:15.449Z,97835.25
2017-10-07T03:34:47.097Z,97835.72
2017-10-07T03:35:18.749Z,97840.83
2017-10-07T03:35:50.393Z,97839.56
2017-10-07T03:36:22.038Z,97839.57
2017-10-07T03:36:53.689Z,97838.29
2017-10-07T03:37:25.337Z,97836.17
2017-10-07T03:37:57.073Z,97841.73
2017-10-07T03:38:28.728Z,97843.87
2017-10-07T03:39:00.410Z,97844.30
2017-10-07T03:39:32.061Z,97848.55
2017-10-07T03:40:03.701Z,97837.06
2017-10-07T03:40:35.345Z,97843.87
2017-10-07T03:41:06.998Z,97847.28
2017-10-07T03:41:38.644Z,97839.62
2017-10-07T03:42:10.306Z,97840.91
2017-10-07T03:42:41.969Z,97844.73
2017-10-07T03:43:13.669Z,97843.47
2017-10-07T03:43:45.321Z,97838.35
2017-10-07T03:44:16.981Z,97838.83
2017-10-07T03:44:48.628Z,97840.54
2017-10-07T03:45:20.277Z,97833.80
2017-10-07T03:45:51.933Z,97840.53
2017-10-07T03:46:23.704Z,97837.56
2017-10-07T03:46:55.353Z,97844.80
2017-10-07T03:47:27.045Z,97838.41
2017-10-07T03:47:58.697Z,97839.25
2017-10-07T03:48:30.580Z,97841.77
2017-10-07T03:49:02.229Z,97842.23
2017-10-07T03:49:33.878Z,97835.44
2017-10-07T03:50:05.521Z,97837.58
2017-10-07T03:50:37.166Z,97836.28
2017-10-07T03:51:08.813Z,97834.60
2017-10-07T03:51:40.461Z,97835.02
2017-10-07T03:52:12.380Z,97833.73
2017-10-07T03:52:44.081Z,97836.30
2017-10-07T03:53:15.971Z,97836.30
2017-10-07T03:53:47.920Z,97836.30
2017-10-07T03:54:19.569Z,97842.25
2017-10-07T03:54:51.222Z,97843.09
2017-10-07T03:55:22.869Z,97843.11
2017-10-07T03:55:54.517Z,97843.11
2017-10-07T03:56:26.162Z,97841.82
2017-10-07T03:56:57.809Z,97837.14
2017-10-07T03:57:29.458Z,97846.93
2017-10-07T03:58:01.369Z,97845.23
2017-10-07T03:58:33.017Z,97845.70
2017-10-07T03:59:04.668Z,97845.27
2017-10-07T03:59:36.556Z,97846.56
2017-10-07T04:00:08.210Z,97845.33
2017-10-07T04:00:39.886Z,97843.17
2017-10-07T04:01:11.541Z,97841.89
2017-10-07T04:01:43.189Z,97844.05
2017-10-07T04:02:14.837Z,97842.73
2017-10-07T04:02:46.481Z,97844.05
2017-10-07T04:03:18.129Z,97842.36
2017-10-07T04:03:49.777Z,97846.19
2017-10-07T04:04:21.429Z,97847.84
2017-10-07T04:04:53.323Z,97848.74
2017-10-07T04:05:24.973Z,97848.31
2017-10-07T04:05:56.620Z,97847.05
2017-10-07T04:06:28.261Z,97849.13
2017-10-07T04:06:59.910Z,97847.41
2017-10-07T04:07:31.561Z,97854.22
2017-10-07T04:08:03.269Z,97844.81
2017-10-07T04:08:35.122Z,97849.06
2017-10-07T04:09:06.792Z,97851.59
2017-10-07T04:09:38.442Z,97846.06
2017-10-07T04:10:10.095Z,97844.78
2017-10-07T04:10:41.949Z,97844.74
2017-10-07T04:11:13.597Z,97847.76
2017-10-07T04:11:45.245Z,97842.66
2017-10-07T04:12:16.920Z,97845.64
2017-10-07T04:12:48.573Z,97850.75
2017-10-07T04:13:20.221Z,97846.52
2017-10-07T04:13:51.925Z,97840.98
2017-10-07T04:14:23.797Z,97845.70
2017-10-07T04:14:55.746Z,97845.23
2017-10-07T04:15:27.696Z,97838.85
2017-10-07T04:15:59.345Z,97842.26
2017-10-07T04:16:30.997Z,97843.58
2017-10-07T04:17:02.653Z,97846.55
2017-10-07T04:17:34.309Z,97838.42
2017-10-07T04:18:05.960Z,97841.41
2017-10-07T04:18:37.613Z,97845.64
2017-10-07T04:19:09.309Z,97840.49
2017-10-07T04:19:40.953Z,97849.42
2017-10-07T04:20:12.601Z,97848.14
2017-10-07T04:20:44.244Z,97843.03
2017-10-07T04:21:15.890Z,97846.84
2017-10-07T04:21:47.542Z,97847.70
2017-10-07T04:22:19.189Z,97846.38
2017-10-07T04:22:50.837Z,97853.59
2017-10-07T04:23:22.486Z,97855.72
2017-10-07T04:23:54.132Z,97854.41
2017-10-07T04:24:25.836Z,97860.41
2017-10-07T04:24:57.489Z,97858.28
2017-10-07T04:25:29.137Z,97860.41
2017-10-07T04:26:00.787Z,97858.23
2017-10-07T04:26:32.437Z,97856.50
2017-10-07T04:27:04.085Z,97862.45
2017-10-07T04:27:35.733Z,97858.56
2017-10-07T04:28:07.405Z,97849.20
2017-10-07T04:28:39.053Z,97849.57
2017-10-07T04:29:10.701Z,97850.78
2017-10-07T04:29:42.407Z,97854.17
2017-10-07T04:30:14.284Z,97853.75
2017-10-07T04:30:45.933Z,97849.92
2017-10-07T04:31:17.582Z,97855.46
2017-10-07T04:31:49.226Z,97849.88
2017-10-07T04:32:20.875Z,97848.58
2017-10-07T04:32:52.760Z,97850.28
2017-10-07T04:33:24.443Z,97842.21
2017-10-07T04:33:56.092Z,97844.32
2017-10-07T04:34:27.737Z,97847.30
2017-10-07T04:34:59.425Z,97854.05
2017-10-07T04:35:31.074Z,97845.05
2017-10-07T04:36:02.854Z,97849.33
2017-10-07T04:36:34.703Z,97851.87
2017-10-07T04:37:06.549Z,97848.05
2017-10-07T04:37:38.499Z,97845.95
2017-10-07T04:38:10.418Z,97842.98
2017-10-07T04:38:42.088Z,97848.11
2017-10-07T04:39:14.039Z,97844.28
2017-10-07T04:39:45.729Z,97848.10
2017-10-07T04:40:17.381Z,97839.16
2017-10-07T04:40:49.025Z,97845.97
2017-10-07T04:41:20.677Z,97850.22
2017-10-07T04:41:52.508Z,97851.94
2017-10-07T04:42:24.504Z,97851.09
2017-10-07T04:42:56.148Z,97852.78
2017-10-07T04:43:27.798Z,97852.35
2017-10-07T04:43:59.450Z,97853.63
2017-10-07T04:44:31.102Z,97858.30
2017-10-07T04:45:02.762Z,97853.58
2017-10-07T04:45:34.414Z,97858.73
2017-10-07T04:46:06.074Z,97859.59
2017-10-07T04:46:37.769Z,97857.09
2017-10-07T04:47:09.413Z,97854.98
2017-10-07T04:47:41.060Z,97860.94
2017-10-07T04:48:12.707Z,97863.97
2017-10-07T04:48:44.511Z,97861.41
2017-10-07T04:49:16.285Z,97859.77
2017-10-07T04:49:47.933Z,97871.66
2017-10-07T04:50:19.577Z,97869.15
2017-10-07T04:50:51.231Z,97870.00
2017-10-07T04:51:22.883Z,97868.30
2017-10-07T04:51:54.581Z,97871.33
2017-10-07T04:52:26.264Z,97875.61
2017-10-07T04:52:57.957Z,97870.50
2017-10-07T04:53:29.907Z,97868.41
2017-10-07T04:54:01.561Z,97877.73
2017-10-07T04:54:33.205Z,97877.78
2017-10-07T04:55:04.858Z,97877.35
2017-10-07T04:55:36.501Z,97871.40
2017-10-07T04:56:08.145Z,97873.95
2017-10-07T04:56:39.958Z,97876.50
2017-10-07T04:57:11.655Z,97882.89
2017-10-07T04:57:43.301Z,97873.95
2017-10-07T04:58:14.953Z,97880.34
2017-10-07T04:58:46.638Z,97879.92
2017-10-07T04:59:18.289Z,97877.37
2017-10-07T04:59:49.945Z,97881.20
2017-10-07T05:00:21.589Z,97879.55
2017-10-07T05:00:53.508Z,97882.97
2017-10-07T05:01:25.161Z,97879.61
2017-10-07T05:01:56.809Z,97878.77
2017-10-07T05:02:28.452Z,97882.18
2017-10-07T05:03:00.093Z,97883.45
2017-10-07T05:03:31.741Z,97882.61
2017-10-07T05:04:03.391Z,97882.22
2017-10-07T05:04:35.033Z,97882.22
2017-10-07T05:05:06.681Z,97882.61
2017-10-07T05:05:38.321Z,97881.80
2017-10-07T05:06:10.211Z,97877.97
2017-10-07T05:06:41.872Z,97878.82
2017-10-07T05:07:13.534Z,97881.38
2017-10-07T05:07:45.189Z,97880.54
2017-10-07T05:08:16.837Z,97883.52
2017-10-07T05:08:48.750Z,97884.38
2017-10-07T05:09:20.700Z,97889.48
2017-10-07T05:09:52.359Z,97886.11
2017-10-07T05:10:24.005Z,97881.02
2017-10-07T05:10:55.657Z,97885.27
2017-10-07T05:11:27.520Z,97880.17
2017-10-07T05:11:59.169Z,97888.25
2017-10-07T05:12:31.053Z,97884.89
2017-10-07T05:13:02.810Z,97883.63
2017-10-07T05:13:34.457Z,97881.08
2017-10-07T05:14:06.397Z,97885.76
2017-10-07T05:14:38.262Z,97881.93
2017-10-07T05:15:09.949Z,97882.79
2017-10-07T05:15:41.630Z,97883.22
2017-10-07T05:16:13.321Z,97885.38
2017-10-07T05:16:44.975Z,97882.86
2017-10-07T05:17:16.626Z,97880.71
2017-10-07T05:17:48.477Z,97883.22
2017-10-07T05:18:20.148Z,97892.63
2017-10-07T05:18:51.797Z,97886.67
2017-10-07T05:19:23.468Z,97890.06
2017-10-07T05:19:55.130Z,97890.48
2017-10-07T05:20:26.773Z,97884.12
2017-10-07T05:20:58.664Z,97882.00
2017-10-07T05:21:30.313Z,97888.80
2017-10-07T05:22:01.965Z,97884.13
2017-10-07T05:22:33.612Z,97878.59
2017-10-07T05:23:05.261Z,97884.13
2017-10-07T05:23:37.181Z,97882.86
2017-10-07T05:24:08.833Z,97873.97
2017-10-07T05:24:40.480Z,97879.50
2017-10-07T05:25:12.306Z,97876.53
2017-10-07T05:25:44.055Z,97876.97
2017-10-07T05:26:15.705Z,97871.91
2017-10-07T05:26:47.357Z,97882.12
2017-10-07T05:27:19.290Z,97877.02
2017-10-07T05:27:51.858Z,97878.73
2017-10-07T05:28:24.719Z,97881.28
2017-10-07T05:28:56.755Z,97883.83
2017-10-07T05:29:28.456Z,97881.74
2017-10-07T05:30:00.118Z,97882.56
2017-10-07T05:30:31.833Z,97885.10
2017-10-07T05:31:03.502Z,97883.39
2017-10-07T05:31:35.188Z,97883.81
2017-10-07T05:32:07.137Z,97886.78
2017-10-07T05:32:39.033Z,97879.94
2017-10-07T05:33:10.685Z,97888.06
2017-10-07T05:33:42.330Z,97887.16
2017-10-07T05:34:14.009Z,97885.89
2017-10-07T05:34:45.902Z,97886.30
2017-10-07T05:35:17.562Z,97887.16
2017-10-07T05:35:49.257Z,97886.73
2017-10-07T05:36:20.901Z,97884.98
2017-10-07T05:36:52.553Z,97885.88
2017-10-07T05:37:24.194Z,97892.64
2017-10-07T05:37:55.837Z,97888.80
2017-10-07T05:38:27.477Z,97884.98
2017-10-07T05:38:59.126Z,97885.83
2017-10-07T05:39:30.779Z,97886.67
2017-10-07T05:40:02.437Z,97881.63
2017-10-07T05:40:34.086Z,97882.49
2017-10-07T05:41:05.790Z,97882.95
2017-10-07T05:41:37.437Z,97881.22
2017-10-07T05:42:09.086Z,97884.61
2017-10-07T05:42:40.741Z,97890.50
2017-10-07T05:43:12.393Z,97892.20
2017-10-07T05:43:44.188Z,97892.21
2017-10-07T05:44:15.845Z,97888.75
2017-10-07T05:44:47.493Z,97888.75
2017-10-07T05:45:19.371Z,97891.77
2017-10-07T05:45:51.017Z,97888.00
2017-10-07T05:46:22.720Z,97887.66
2017-10-07T05:46:54.374Z,97888.56
2017-10-07T05:47:26.190Z,97893.43
2017-10-07T05:47:57.849Z,97891.03
2017-10-07T05:48:29.529Z,97893.59
2017-10-07T05:49:01.215Z,97890.24
2017-10-07T05:49:32.876Z,97887.70
2017-10-07T05:50:04.569Z,97892.44
2017-10-07T05:50:36.236Z,97891.17
2017-10-07T05:51:07.897Z,97897.61
2017-10-07T05:51:39.731Z,97898.45
2017-10-07T05:52:11.391Z,97892.13
2017-10-07T05:52:43.044Z,97895.48
2017-10-07T05:53:14.688Z,97895.11
2017-10-07T05:53:46.336Z,97895.55
2017-10-07T05:54:17.989Z,97907.45
2017-10-07T05:54:49.781Z,97899.38
2017-10-07T05:55:21.437Z,97904.05
2017-10-07T05:55:53.085Z,97901.55
2017-10-07T05:56:24.736Z,97905.83
2017-10-07T05:56:56.458Z,97906.73
2017-10-07T05:57:28.113Z,97907.15
2017-10-07T05:57:59.757Z,97911.41
2017-10-07T05:58:31.409Z,97915.22
2017-10-07T05:59:03.332Z,97909.23
2017-10-07T05:59:34.981Z,97918.21
2017-10-07T06:00:06.662Z,97920.77
2017-10-07T06:00:38.318Z,97920.34
2017-10-07T06:01:10.206Z,97922.52
2017-10-07T06:01:41.853Z,97917.84
2017-10-07T06:02:13.497Z,97921.20
2017-10-07T06:02:45.142Z,97920.77
2017-10-07T06:03:16.797Z,97919.54
2017-10-07T06:03:48.446Z,97921.24
2017-10-07T06:04:20.368Z,97928.47
2017-10-07T06:04:52.018Z,97921.24
2017-10-07T06:05:23.670Z,97918.28
2017-10-07T06:05:55.321Z,97921.72
2017-10-07T06:06:26.964Z,97921.72
2017-10-07T06:06:58.622Z,97925.94
2017-10-07T06:07:30.273Z,97917.43
2017-10-07T06:08:01.921Z,97925.92
2017-10-07T06:08:33.808Z,97923.80
2017-10-07T06:09:05.461Z,97924.66
2017-10-07T06:09:37.105Z,97917.85
2017-10-07T06:10:08.797Z,97920.41
2017-10-07T06:10:40.684Z,97921.72
2017-10-07T06:11:12.346Z,97913.64
2017-10-07T06:11:43.994Z,97911.91
2017-10-07T06:12:15.651Z,97912.37
2017-10-07T06:12:47.292Z,97913.64